Time;durP1;ratioP1;P1;durP2;ratioP2;P2;SDS_P1;SDS_P2;PMS_P1;PMS_P2;Temp;Humidity;BMP_temperature;BMP_pressure;BME280_temperature;BME280_humidity;BME280_pressure;Samples;Min_cycle;Max_cycle;Signal;HPM_P1;HPM_P2
2022/01/31 00:00:56;;;;;;;;;;;4.50;99.90;;;;;;5123049;27;19923;-73
2022/01/31 00:03:22;;;;;;;;;;;4.40;99.90;;;;;;5125068;27;20007;-75
2022/01/31 00:05:48;;;;;;;;;;;4.40;99.90;;;;;;5126822;27;19950;-73
2022/01/31 00:08:20;;;;;;;;;;;4.30;99.90;;;;;;5125168;27;19912;-72
2022/01/31 00:10:46;;;;;;;;;;;4.20;99.90;;;;;;5127950;27;19916;-75
2022/01/31 00:13:18;;;;;;;;;;;4.20;99.90;;;;;;5130273;27;20568;-76
2022/01/31 00:15:47;;;;;;;;;;;4.20;99.90;;;;;;5129648;27;19912;-73
2022/01/31 00:18:12;;;;;;;;;;;4.20;99.90;;;;;;5126801;27;19912;-72
2022/01/31 00:20:39;;;;;;;;;;;4.20;99.90;;;;;;5129928;27;19923;-74
2022/01/31 00:23:05;;;;;;;;;;;4.20;99.90;;;;;;5127621;27;19922;-73
2022/01/31 00:25:30;;;;;;;;;;;4.20;99.90;;;;;;5129048;27;20304;-74
2022/01/31 00:27:56;;;;;;;;;;;4.10;99.90;;;;;;5123221;27;19912;-75
2022/01/31 00:30:22;;;;;;;;;;;4.10;99.90;;;;;;5120310;27;19916;-74
2022/01/31 00:32:48;;;;;;;;;;;4.00;99.90;;;;;;5120007;27;19922;-73
2022/01/31 00:35:13;;;;;;;;;;;4.10;99.90;;;;;;5131082;27;19911;-74
2022/01/31 00:37:40;;;;;;;;;;;4.10;99.90;;;;;;5130565;27;20277;-74
2022/01/31 00:40:06;;;;;;;;;;;4.10;99.90;;;;;;5129366;27;19927;-73
2022/01/31 00:42:32;;;;;;;;;;;4.10;99.90;;;;;;5128048;27;20337;-74
2022/01/31 00:45:25;;;;;;;;;;;4.10;99.90;;;;;;5125077;27;20337;-73
2022/01/31 00:47:58;;;;;;;;;;;4.10;99.90;;;;;;5122342;27;20007;-73
2022/01/31 00:50:24;;;;;;;;;;;4.20;99.90;;;;;;5128196;27;19935;-74
2022/01/31 00:52:49;;;;;;;;;;;4.10;99.90;;;;;;5124965;27;19912;-75
2022/01/31 00:55:15;;;;;;;;;;;4.10;99.90;;;;;;5124097;27;20005;-76
2022/01/31 00:57:41;;;;;;;;;;;4.00;99.90;;;;;;5121888;27;20387;-74
2022/01/31 01:00:07;;;;;;;;;;;4.10;99.90;;;;;;5122616;27;19998;-74
2022/01/31 01:02:33;;;;;;;;;;;4.20;99.90;;;;;;5129019;27;20373;-73
2022/01/31 01:04:59;;;;;;;;;;;4.20;99.90;;;;;;5125877;27;19911;-75
2022/01/31 01:07:24;;;;;;;;;;;4.20;99.90;;;;;;5124908;27;20547;-73
2022/01/31 01:09:50;;;;;;;;;;;4.10;99.90;;;;;;5130094;27;19923;-74
2022/01/31 01:12:16;;;;;;;;;;;4.20;99.90;;;;;;5126236;27;19964;-74
2022/01/31 01:14:42;;;;;;;;;;;4.20;99.90;;;;;;5126378;27;19937;-74
2022/01/31 01:17:08;;;;;;;;;;;4.30;99.90;;;;;;5129204;27;19942;-73
2022/01/31 01:19:34;;;;;;;;;;;4.20;99.90;;;;;;5128301;27;19912;-74
2022/01/31 01:22:00;;;;;;;;;;;4.40;99.90;;;;;;5126562;27;20408;-74
2022/01/31 01:24:25;;;;;;;;;;;4.50;99.90;;;;;;5128664;27;19947;-75
2022/01/31 01:26:51;;;;;;;;;;;4.50;99.90;;;;;;5126070;27;19960;-74
2022/01/31 01:29:17;;;;;;;;;;;4.40;99.90;;;;;;5128919;27;19915;-75
2022/01/31 01:31:46;;;;;;;;;;;4.50;99.90;;;;;;5130324;28;19912;-75
2022/01/31 01:34:12;;;;;;;;;;;4.40;99.90;;;;;;5127722;28;20016;-75
2022/01/31 01:36:38;;;;;;;;;;;4.50;99.90;;;;;;5123521;28;19990;-74
2022/01/31 01:39:04;;;;;;;;;;;4.60;99.90;;;;;;5128020;28;19918;-75
2022/01/31 01:41:30;;;;;;;;;;;4.60;99.90;;;;;;5127998;28;19922;-76
2022/01/31 01:43:56;;;;;;;;;;;4.50;99.90;;;;;;5125787;27;19920;-74
2022/01/31 01:46:21;;;;;;;;;;;4.50;99.90;;;;;;5133393;27;19912;-73
2022/01/31 01:48:47;;;;;;;;;;;4.30;99.90;;;;;;5126510;27;20010;-75
2022/01/31 01:51:13;;;;;;;;;;;4.20;99.90;;;;;;5126428;27;19919;-74
2022/01/31 01:53:38;;;;;;;;;;;4.10;99.90;;;;;;5132530;27;19957;-73
2022/01/31 01:56:04;;;;;;;;;;;4.00;99.90;;;;;;5127228;27;19951;-73
2022/01/31 01:58:37;;;;;;;;;;;4.00;99.90;;;;;;5129768;27;20381;-74
2022/01/31 02:01:03;;;;;;;;;;;4.00;99.90;;;;;;5127475;27;19920;-75
2022/01/31 02:03:30;;;;;;;;;;;4.10;99.90;;;;;;5128547;27;20327;-75
2022/01/31 02:05:56;;;;;;;;;;;4.00;99.90;;;;;;5127612;27;20108;-73
2022/01/31 02:08:22;;;;;;;;;;;4.00;99.90;;;;;;5133230;27;19907;-75
2022/01/31 02:10:48;;;;;;;;;;;4.00;99.90;;;;;;5134447;27;19911;-74
2022/01/31 02:13:17;;;;;;;;;;;3.90;99.90;;;;;;5137003;27;20084;-75
2022/01/31 02:15:46;;;;;;;;;;;3.90;99.90;;;;;;5133110;27;19911;-73
2022/01/31 02:18:13;;;;;;;;;;;3.90;99.90;;;;;;5131204;27;19993;-73
2022/01/31 02:20:39;;;;;;;;;;;3.90;99.90;;;;;;5135190;27;19916;-75
2022/01/31 02:23:06;;;;;;;;;;;3.90;99.90;;;;;;5137195;27;19975;-74
2022/01/31 02:25:32;;;;;;;;;;;3.80;99.90;;;;;;5135683;27;20705;-75
2022/01/31 02:27:57;;;;;;;;;;;3.90;99.90;;;;;;5139127;27;19911;-74
2022/01/31 02:30:23;;;;;;;;;;;3.90;99.90;;;;;;5132219;27;20289;-72
2022/01/31 02:32:48;;;;;;;;;;;3.90;99.90;;;;;;5131635;27;19919;-74
2022/01/31 02:35:14;;;;;;;;;;;3.90;99.90;;;;;;5133094;27;19911;-75
2022/01/31 02:37:40;;;;;;;;;;;3.80;99.90;;;;;;5130103;27;19912;-73
2022/01/31 02:40:05;;;;;;;;;;;3.80;99.90;;;;;;5129017;27;20196;-74
2022/01/31 02:42:31;;;;;;;;;;;3.70;99.90;;;;;;5133049;27;19907;-73
2022/01/31 02:44:57;;;;;;;;;;;3.70;99.90;;;;;;5123528;27;19969;-74
2022/01/31 02:47:28;;;;;;;;;;;3.90;99.90;;;;;;5134036;27;20400;-72
2022/01/31 02:50:06;;;;;;;;;;;4.00;99.90;;;;;;5127625;27;20987;-73
2022/01/31 02:52:34;;;;;;;;;;;4.20;99.90;;;;;;5127990;27;19918;-74
2022/01/31 02:54:59;;;;;;;;;;;4.30;99.90;;;;;;5129091;27;20273;-73
2022/01/31 02:57:25;;;;;;;;;;;4.30;99.90;;;;;;5125220;27;19916;-73
2022/01/31 02:59:50;;;;;;;;;;;4.30;99.90;;;;;;5132545;27;19919;-73
2022/01/31 03:02:16;;;;;;;;;;;4.40;99.90;;;;;;5130975;27;20386;-74
2022/01/31 03:04:42;;;;;;;;;;;4.40;99.90;;;;;;5131584;27;20289;-75
2022/01/31 03:07:08;;;;;;;;;;;4.40;99.90;;;;;;5130398;27;19959;-74
2022/01/31 03:09:34;;;;;;;;;;;4.40;99.90;;;;;;5132481;27;19919;-74
2022/01/31 03:11:59;;;;;;;;;;;4.40;99.90;;;;;;5121536;27;19930;-74
2022/01/31 03:14:25;;;;;;;;;;;4.20;99.90;;;;;;5132838;27;20273;-73
2022/01/31 03:16:51;;;;;;;;;;;4.20;99.90;;;;;;5127969;27;19911;-74
2022/01/31 03:19:17;;;;;;;;;;;4.10;99.90;;;;;;5131615;27;19916;-71
2022/01/31 03:21:43;;;;;;;;;;;4.20;99.90;;;;;;5132103;27;19916;-73
2022/01/31 03:24:09;;;;;;;;;;;4.30;99.90;;;;;;5124506;27;19912;-73
2022/01/31 03:26:35;;;;;;;;;;;4.20;99.90;;;;;;5122250;27;20014;-74
2022/01/31 03:29:01;;;;;;;;;;;4.30;99.90;;;;;;5124533;27;20002;-73
2022/01/31 03:31:26;;;;;;;;;;;4.30;99.90;;;;;;5127445;27;19911;-73
2022/01/31 03:33:53;;;;;;;;;;;4.30;99.90;;;;;;5132712;27;19958;-75
2022/01/31 03:36:19;;;;;;;;;;;4.30;99.90;;;;;;5127743;27;19972;-73
2022/01/31 03:38:45;;;;;;;;;;;4.30;99.90;;;;;;5122222;27;19912;-74
2022/01/31 03:41:11;;;;;;;;;;;4.30;99.90;;;;;;5127716;27;19922;-73
2022/01/31 03:43:37;;;;;;;;;;;4.30;99.90;;;;;;5128359;27;19931;-73
2022/01/31 03:46:03;;;;;;;;;;;4.30;99.90;;;;;;5129204;27;19911;-73
2022/01/31 03:48:29;;;;;;;;;;;4.40;99.90;;;;;;5131410;27;20556;-73
2022/01/31 03:50:55;;;;;;;;;;;4.40;99.90;;;;;;5128448;27;19958;-73
2022/01/31 03:53:21;;;;;;;;;;;4.40;99.90;;;;;;5127553;27;19919;-73
2022/01/31 03:55:47;;;;;;;;;;;4.40;99.90;;;;;;5120216;27;19957;-74
2022/01/31 03:58:12;;;;;;;;;;;4.40;99.90;;;;;;5129653;27;19918;-74
2022/01/31 04:00:38;;;;;;;;;;;4.40;99.90;;;;;;5130605;27;19915;-74
2022/01/31 04:03:04;;;;;;;;;;;4.50;99.90;;;;;;5128166;27;20007;-74
2022/01/31 04:05:31;;;;;;;;;;;4.50;99.90;;;;;;5122836;27;20002;-74
2022/01/31 04:07:57;;;;;;;;;;;4.50;99.90;;;;;;5132746;27;19915;-73
2022/01/31 04:10:22;;;;;;;;;;;4.50;99.90;;;;;;5126979;27;20361;-73
2022/01/31 04:12:48;;;;;;;;;;;4.50;99.90;;;;;;5129758;27;19926;-74
2022/01/31 04:15:14;;;;;;;;;;;4.60;99.90;;;;;;5129754;27;20032;-73
2022/01/31 04:17:39;;;;;;;;;;;4.60;99.90;;;;;;5129868;27;19911;-73
2022/01/31 04:20:07;;;;;;;;;;;4.40;99.90;;;;;;5126697;27;19919;-74
2022/01/31 04:22:35;;;;;;;;;;;4.30;99.90;;;;;;5130379;27;19911;-73
2022/01/31 04:25:05;;;;;;;;;;;4.50;99.90;;;;;;5131551;27;19912;-74
2022/01/31 04:27:43;;;;;;;;;;;4.60;99.90;;;;;;5120977;27;19917;-73
2022/01/31 04:30:11;;;;;;;;;;;4.70;99.90;;;;;;5130635;27;20285;-74
2022/01/31 04:32:37;;;;;;;;;;;4.70;99.90;;;;;;5123660;27;19911;-74
2022/01/31 04:35:02;;;;;;;;;;;4.60;99.90;;;;;;5131555;27;19919;-74
2022/01/31 04:37:28;;;;;;;;;;;4.60;99.90;;;;;;5122086;27;19915;-73
2022/01/31 04:39:54;;;;;;;;;;;4.50;99.90;;;;;;5129421;27;20009;-74
2022/01/31 04:42:19;;;;;;;;;;;4.50;99.90;;;;;;5125742;27;19911;-74
2022/01/31 04:44:45;;;;;;;;;;;4.70;99.90;;;;;;5125043;27;19916;-74
2022/01/31 04:47:11;;;;;;;;;;;4.70;99.90;;;;;;5129143;27;19912;-73
2022/01/31 04:49:37;;;;;;;;;;;4.80;99.90;;;;;;5130373;27;19923;-75
2022/01/31 04:52:03;;;;;;;;;;;5.00;99.90;;;;;;5128302;27;20012;-73
2022/01/31 04:54:28;;;;;;;;;;;5.00;99.90;;;;;;5130526;27;20342;-73
2022/01/31 04:56:54;;;;;;;;;;;4.90;99.90;;;;;;5126121;27;19988;-74
2022/01/31 04:59:19;;;;;;;;;;;4.80;99.90;;;;;;5118044;27;19946;-74
2022/01/31 05:01:47;;;;;;;;;;;4.80;99.90;;;;;;5129573;27;19930;-73
2022/01/31 05:04:13;;;;;;;;;;;4.70;99.90;;;;;;5124381;27;19918;-74
2022/01/31 05:06:41;;;;;;;;;;;4.60;99.90;;;;;;5128928;27;20307;-74
2022/01/31 05:09:07;;;;;;;;;;;4.70;99.90;;;;;;5129088;27;19926;-76
2022/01/31 05:11:33;;;;;;;;;;;4.90;99.90;;;;;;5129166;27;19918;-74
2022/01/31 05:13:59;;;;;;;;;;;4.90;99.90;;;;;;5129047;27;19915;-75
2022/01/31 05:16:24;;;;;;;;;;;5.00;99.90;;;;;;5129231;27;19911;-75
2022/01/31 05:18:50;;;;;;;;;;;5.10;99.90;;;;;;5125255;27;19947;-74
2022/01/31 05:21:19;;;;;;;;;;;5.10;99.90;;;;;;5129468;27;19918;-76
2022/01/31 05:23:48;;;;;;;;;;;5.30;99.90;;;;;;5131312;27;19915;-75
2022/01/31 05:26:13;;;;;;;;;;;5.30;99.90;;;;;;5119015;27;19973;-75
2022/01/31 05:28:42;;;;;;;;;;;5.30;99.90;;;;;;5120724;27;20028;-75
2022/01/31 05:31:07;;;;;;;;;;;5.20;99.90;;;;;;5128655;27;20340;-76
2022/01/31 05:33:33;;;;;;;;;;;5.20;99.90;;;;;;5115865;28;19926;-73
2022/01/31 05:35:59;;;;;;;;;;;5.10;99.90;;;;;;5122474;28;19919;-73
2022/01/31 05:38:25;;;;;;;;;;;5.10;99.90;;;;;;5124745;28;19911;-75
2022/01/31 05:40:50;;;;;;;;;;;5.40;99.90;;;;;;5128069;28;20316;-74
2022/01/31 05:43:16;;;;;;;;;;;5.50;99.90;;;;;;5123100;27;19925;-74
2022/01/31 05:45:42;;;;;;;;;;;5.60;99.90;;;;;;5128884;28;19912;-73
2022/01/31 05:48:08;;;;;;;;;;;5.60;99.90;;;;;;5121638;28;19908;-73
2022/01/31 05:50:34;;;;;;;;;;;5.50;99.90;;;;;;5125430;28;19998;-73
2022/01/31 05:52:59;;;;;;;;;;;5.60;99.90;;;;;;5127276;27;19907;-73
2022/01/31 05:55:25;;;;;;;;;;;5.70;99.90;;;;;;5130538;27;19991;-73
2022/01/31 05:57:50;;;;;;;;;;;5.90;99.90;;;;;;5119903;28;19912;-74
2022/01/31 06:00:16;;;;;;;;;;;5.90;99.90;;;;;;5130021;28;20018;-74
2022/01/31 06:02:42;;;;;;;;;;;6.00;99.90;;;;;;5123215;28;19911;-74
2022/01/31 06:05:08;;;;;;;;;;;6.00;99.90;;;;;;5126996;27;19920;-74
2022/01/31 06:07:33;;;;;;;;;;;5.90;99.90;;;;;;5121106;27;19923;-74
2022/01/31 06:10:00;;;;;;;;;;;6.00;99.90;;;;;;5120601;28;20002;-74
2022/01/31 06:12:25;;;;;;;;;;;6.00;99.90;;;;;;5130994;28;20006;-74
2022/01/31 06:14:51;;;;;;;;;;;6.10;99.90;;;;;;5129563;27;19955;-74
2022/01/31 06:17:16;;;;;;;;;;;6.10;99.90;;;;;;5114894;27;19919;-74
2022/01/31 06:19:44;;;;;;;;;;;6.10;99.90;;;;;;5119647;28;20454;-75
2022/01/31 06:22:09;;;;;;;;;;;6.00;99.90;;;;;;5119497;27;19934;-73
2022/01/31 06:24:35;;;;;;;;;;;5.90;99.90;;;;;;5129013;28;19930;-75
2022/01/31 06:27:01;;;;;;;;;;;5.90;99.90;;;;;;5120710;28;20410;-76
2022/01/31 06:29:27;;;;;;;;;;;5.90;99.90;;;;;;5133291;27;20002;-73
2022/01/31 06:31:53;;;;;;;;;;;5.90;99.90;;;;;;5130891;27;19958;-75
2022/01/31 06:34:19;;;;;;;;;;;6.00;99.90;;;;;;5127257;27;19911;-73
2022/01/31 06:36:45;;;;;;;;;;;6.10;99.90;;;;;;5130919;27;19912;-74
2022/01/31 06:39:10;;;;;;;;;;;6.30;99.90;;;;;;5132602;27;20002;-74
2022/01/31 06:41:36;;;;;;;;;;;6.40;99.90;;;;;;5128711;27;19986;-73
2022/01/31 06:44:02;;;;;;;;;;;6.30;99.90;;;;;;5131579;27;19907;-73
2022/01/31 06:46:28;;;;;;;;;;;6.20;99.90;;;;;;5121149;27;19923;-74
2022/01/31 06:48:59;;;;;;;;;;;6.10;99.90;;;;;;5121568;27;19920;-75
2022/01/31 06:51:25;;;;;;;;;;;6.00;99.90;;;;;;5127302;27;19922;-73
2022/01/31 06:53:50;;;;;;;;;;;6.10;99.90;;;;;;5131510;27;20015;-73
2022/01/31 06:56:17;;;;;;;;;;;6.10;99.90;;;;;;5130504;27;19938;-75
2022/01/31 06:58:42;;;;;;;;;;;6.10;99.90;;;;;;5128408;27;19918;-74
2022/01/31 07:01:08;;;;;;;;;;;6.20;99.90;;;;;;5128978;27;19923;-73
2022/01/31 07:03:36;;;;;;;;;;;6.20;99.90;;;;;;5133972;27;19907;-73
2022/01/31 07:06:02;;;;;;;;;;;6.30;99.90;;;;;;5124999;27;19931;-73
2022/01/31 07:08:27;;;;;;;;;;;6.40;99.90;;;;;;5129877;27;19911;-73
2022/01/31 07:10:53;;;;;;;;;;;6.50;99.90;;;;;;5130938;27;19968;-73
2022/01/31 07:14:01;;;;;;;;;;;6.50;99.90;;;;;;5130894;27;19965;-73
2022/01/31 07:16:11;;;;;;;;;;;6.60;99.90;;;;;;5123722;27;19912;-72
2022/01/31 07:18:37;;;;;;;;;;;6.70;99.90;;;;;;5133658;27;20361;-74
2022/01/31 07:21:03;;;;;;;;;;;6.80;99.90;;;;;;5127613;27;20376;-74
2022/01/31 07:23:49;;;;;;;;;;;6.80;99.90;;;;;;5129464;27;20321;-73
2022/01/31 07:26:15;;;;;;;;;;;6.90;99.90;;;;;;5128897;27;20280;-72
2022/01/31 07:28:42;;;;;;;;;;;7.00;99.90;;;;;;5131211;27;19908;-72
2022/01/31 07:31:07;;;;;;;;;;;7.00;99.90;;;;;;5126057;27;19911;-73
2022/01/31 07:33:33;;;;;;;;;;;7.10;99.90;;;;;;5132122;27;20013;-73
2022/01/31 07:35:59;;;;;;;;;;;7.20;99.90;;;;;;5129411;27;19923;-72
2022/01/31 07:38:25;;;;;;;;;;;7.20;99.90;;;;;;5128492;27;20380;-72
2022/01/31 07:40:51;;;;;;;;;;;7.30;99.90;;;;;;5119703;27;20041;-72
2022/01/31 07:43:17;;;;;;;;;;;7.40;99.90;;;;;;5129407;27;20297;-73
2022/01/31 07:45:42;;;;;;;;;;;7.40;99.90;;;;;;5126694;27;19915;-73
2022/01/31 07:48:08;;;;;;;;;;;7.40;99.90;;;;;;5125428;27;19912;-73
2022/01/31 07:50:36;;;;;;;;;;;7.50;99.90;;;;;;5126419;27;20441;-72
2022/01/31 07:53:03;;;;;;;;;;;7.50;99.90;;;;;;5130109;27;20289;-73
2022/01/31 07:55:29;;;;;;;;;;;7.60;99.90;;;;;;5127763;27;19911;-73
2022/01/31 07:57:54;;;;;;;;;;;7.60;99.90;;;;;;5128710;27;20247;-74
2022/01/31 08:00:20;;;;;;;;;;;7.60;99.90;;;;;;5131854;27;19923;-74
2022/01/31 08:02:45;;;;;;;;;;;7.60;99.90;;;;;;5124946;27;19919;-73
2022/01/31 08:05:11;;;;;;;;;;;7.70;99.90;;;;;;5131873;27;19957;-73
2022/01/31 08:07:37;;;;;;;;;;;7.80;99.90;;;;;;5120580;27;19958;-73
2022/01/31 08:10:03;;;;;;;;;;;7.80;99.90;;;;;;5127848;27;20010;-74
2022/01/31 08:12:30;;;;;;;;;;;7.90;99.90;;;;;;5129084;27;19935;-74
2022/01/31 08:15:02;;;;;;;;;;;8.00;99.90;;;;;;5128997;27;19974;-73
2022/01/31 08:17:28;;;;;;;;;;;7.90;99.90;;;;;;5124030;27;19919;-73
2022/01/31 08:19:53;;;;;;;;;;;8.10;99.90;;;;;;5130693;27;19920;-74
2022/01/31 08:22:19;;;;;;;;;;;8.10;99.90;;;;;;5128624;27;19918;-73
2022/01/31 08:24:45;;;;;;;;;;;8.00;99.90;;;;;;5124112;27;20030;-74
2022/01/31 08:27:10;;;;;;;;;;;7.90;99.90;;;;;;5129530;27;19919;-74
2022/01/31 08:29:38;;;;;;;;;;;8.00;99.90;;;;;;5130632;27;19915;-74
2022/01/31 08:32:08;;;;;;;;;;;8.10;99.90;;;;;;5128099;27;19915;-74
2022/01/31 08:37:18;;;;;;;;;;;8.10;99.90;;;;;;5127519;27;19983;-73
2022/01/31 08:39:43;;;;;;;;;;;8.10;99.90;;;;;;5117753;27;19916;-73
2022/01/31 08:42:09;;;;;;;;;;;8.10;99.90;;;;;;5127239;27;20482;-73
2022/01/31 08:44:35;;;;;;;;;;;8.20;99.90;;;;;;5130401;27;19927;-73
2022/01/31 08:47:00;;;;;;;;;;;8.40;99.90;;;;;;5132425;27;19964;-74
2022/01/31 08:49:26;;;;;;;;;;;8.60;99.90;;;;;;5131045;27;20206;-74
2022/01/31 08:51:52;;;;;;;;;;;8.70;99.90;;;;;;5129578;27;19958;-73
2022/01/31 08:54:20;;;;;;;;;;;8.70;99.90;;;;;;5136205;27;20365;-73
2022/01/31 08:56:46;;;;;;;;;;;8.60;99.90;;;;;;5127722;27;20322;-74
2022/01/31 08:59:18;;;;;;;;;;;8.60;99.90;;;;;;5130672;27;19972;-73
2022/01/31 09:01:51;;;;;;;;;;;8.50;99.90;;;;;;5139101;27;20030;-73
2022/01/31 09:04:31;;;;;;;;;;;8.50;99.90;;;;;;5139074;27;20044;-74
2022/01/31 09:06:57;;;;;;;;;;;8.50;99.90;;;;;;5133875;27;19915;-74
2022/01/31 09:09:24;;;;;;;;;;;8.70;99.90;;;;;;5134155;27;19907;-75
2022/01/31 09:11:49;;;;;;;;;;;8.70;99.90;;;;;;5124642;27;19934;-73
2022/01/31 09:14:15;;;;;;;;;;;8.70;99.90;;;;;;5131257;27;19919;-73
2022/01/31 09:16:41;;;;;;;;;;;8.70;99.90;;;;;;5125322;27;19912;-74
2022/01/31 09:19:06;;;;;;;;;;;8.70;99.90;;;;;;5129495;27;19958;-74
2022/01/31 09:21:32;;;;;;;;;;;8.80;99.90;;;;;;5128932;27;20390;-72
2022/01/31 09:23:58;;;;;;;;;;;8.90;99.90;;;;;;5131117;27;20249;-73
2022/01/31 09:26:23;;;;;;;;;;;9.00;99.90;;;;;;5126806;28;19912;-70
2022/01/31 09:28:53;;;;;;;;;;;9.00;99.90;;;;;;5129553;27;19964;-70
2022/01/31 09:31:20;;;;;;;;;;;9.10;99.90;;;;;;5129143;27;19936;-68
2022/01/31 09:33:46;;;;;;;;;;;9.10;99.90;;;;;;5133124;28;19916;-70
2022/01/31 09:36:12;;;;;;;;;;;9.20;99.90;;;;;;5132327;28;19963;-69
2022/01/31 09:38:40;;;;;;;;;;;9.30;99.90;;;;;;5132158;28;19986;-71
2022/01/31 09:41:05;;;;;;;;;;;9.40;99.90;;;;;;5125875;28;19919;-69
2022/01/31 09:43:56;;;;;;;;;;;9.40;99.90;;;;;;5128157;27;19998;-69
2022/01/31 09:49:05;;;;;;;;;;;9.40;99.90;;;;;;5113147;28;19912;-70
2022/01/31 09:51:31;;;;;;;;;;;9.40;99.90;;;;;;5124951;28;19981;-69
2022/01/31 09:53:59;;;;;;;;;;;9.40;99.90;;;;;;5130778;28;19926;-70
2022/01/31 09:56:26;;;;;;;;;;;9.50;99.90;;;;;;5117842;28;19986;-70
2022/01/31 09:58:53;;;;;;;;;;;9.70;99.90;;;;;;5127386;28;20002;-71
2022/01/31 10:01:20;;;;;;;;;;;9.70;99.90;;;;;;5128668;28;19916;-70
2022/01/31 10:03:45;;;;;;;;;;;9.80;99.90;;;;;;5126331;27;20354;-70
2022/01/31 10:06:18;;;;;;;;;;;9.70;99.90;;;;;;5131987;27;19916;-65
2022/01/31 10:08:44;;;;;;;;;;;9.80;99.90;;;;;;5132118;27;20060;-66
2022/01/31 10:11:20;;;;;;;;;;;9.70;99.90;;;;;;5123224;27;20407;-67
2022/01/31 10:16:34;;;;;;;;;;;9.60;99.90;;;;;;5134523;27;19919;-66
2022/01/31 10:19:08;;;;;;;;;;;9.50;99.90;;;;;;5135070;27;19911;-66
2022/01/31 10:21:53;;;;;;;;;;;9.40;99.90;;;;;;5131063;27;20408;-66
2022/01/31 10:24:18;;;;;;;;;;;9.50;99.90;;;;;;5124077;27;19960;-65
2022/01/31 10:26:44;;;;;;;;;;;9.50;99.90;;;;;;5121890;27;19911;-72
2022/01/31 10:29:10;;;;;;;;;;;9.40;99.90;;;;;;5124596;27;19912;-72
2022/01/31 10:31:36;;;;;;;;;;;9.60;99.90;;;;;;5129368;27;19961;-71
2022/01/31 10:34:12;;;;;;;;;;;9.60;99.90;;;;;;5134569;27;20258;-68
2022/01/31 10:36:38;;;;;;;;;;;9.50;99.90;;;;;;5116976;27;19911;-72
2022/01/31 10:39:12;;;;;;;;;;;9.60;99.90;;;;;;5130130;27;20341;-73
2022/01/31 10:53:05;;;;;;;;;;;9.60;99.90;;;;;;5136673;27;20454;-70
2022/01/31 10:55:31;;;;;;;;;;;9.60;99.90;;;;;;5129535;27;19994;-72
2022/01/31 10:58:06;;;;;;;;;;;9.70;99.90;;;;;;5128758;27;19916;-71
2022/01/31 11:00:40;;;;;;;;;;;9.80;99.90;;;;;;5125810;27;19923;-71
2022/01/31 11:03:24;;;;;;;;;;;9.80;99.90;;;;;;5125774;27;20364;-70
2022/01/31 11:05:50;;;;;;;;;;;9.90;99.90;;;;;;5126872;27;19922;-71
2022/01/31 11:08:16;;;;;;;;;;;10.00;99.90;;;;;;5130352;27;20292;-71
2022/01/31 11:10:42;;;;;;;;;;;10.00;99.90;;;;;;5128983;27;20587;-71
2022/01/31 11:13:08;;;;;;;;;;;10.10;99.90;;;;;;5131581;27;19911;-71
2022/01/31 11:15:34;;;;;;;;;;;10.10;99.90;;;;;;5127398;27;20035;-70
2022/01/31 11:18:01;;;;;;;;;;;10.20;99.90;;;;;;5127574;27;19954;-69
2022/01/31 11:20:26;;;;;;;;;;;10.20;99.90;;;;;;5126685;27;19930;-72
2022/01/31 11:22:57;;;;;;;;;;;10.20;99.90;;;;;;5125064;27;19912;-70
2022/01/31 11:25:26;;;;;;;;;;;10.10;99.90;;;;;;5137310;27;19919;-71
2022/01/31 11:27:53;;;;;;;;;;;10.00;99.90;;;;;;5134929;27;19915;-70
2022/01/31 11:30:19;;;;;;;;;;;9.90;99.90;;;;;;5130901;27;20351;-69
2022/01/31 11:32:46;;;;;;;;;;;9.90;99.90;;;;;;5131960;27;19943;-71
2022/01/31 11:35:12;;;;;;;;;;;9.90;99.90;;;;;;5130524;27;19912;-70
2022/01/31 11:37:37;;;;;;;;;;;9.90;99.90;;;;;;5125520;27;19988;-70
2022/01/31 11:40:07;;;;;;;;;;;9.90;99.90;;;;;;5129557;27;19937;-70
2022/01/31 11:42:33;;;;;;;;;;;10.00;99.90;;;;;;5127194;27;20006;-70
2022/01/31 11:44:59;;;;;;;;;;;10.00;99.90;;;;;;5125430;27;19971;-73
2022/01/31 11:47:27;;;;;;;;;;;9.80;99.90;;;;;;5127865;27;19916;-72
2022/01/31 11:49:58;;;;;;;;;;;9.80;99.90;;;;;;5133912;27;20002;-69
2022/01/31 11:52:24;;;;;;;;;;;9.80;99.90;;;;;;5130201;27;19963;-70
2022/01/31 11:54:51;;;;;;;;;;;9.80;99.90;;;;;;5128679;27;19931;-70
2022/01/31 11:57:20;;;;;;;;;;;9.90;99.90;;;;;;5128540;27;19977;-71
2022/01/31 11:59:52;;;;;;;;;;;9.90;99.90;;;;;;5133252;27;19915;-70
2022/01/31 12:02:18;;;;;;;;;;;10.00;99.90;;;;;;5125336;27;20014;-69
2022/01/31 12:04:45;;;;;;;;;;;10.00;99.90;;;;;;5128269;27;20383;-69
2022/01/31 12:07:30;;;;;;;;;;;10.00;99.90;;;;;;5126798;27;19954;-67
2022/01/31 12:09:58;;;;;;;;;;;10.10;99.90;;;;;;5125636;27;19923;-70
2022/01/31 12:12:44;;;;;;;;;;;10.20;99.90;;;;;;5125977;27;19911;-72
2022/01/31 12:23:36;;;;;;;;;;;10.20;99.90;;;;;;5128809;27;19938;-70
2022/01/31 12:26:03;;;;;;;;;;;10.30;99.90;;;;;;5122507;27;19912;-70
2022/01/31 12:28:39;;;;;;;;;;;10.20;99.90;;;;;;5132061;27;19912;-71
2022/01/31 12:31:23;;;;;;;;;;;10.30;99.90;;;;;;5125439;27;20388;-69
2022/01/31 12:33:49;;;;;;;;;;;10.20;99.90;;;;;;5130910;27;19912;-70
2022/01/31 12:36:41;;;;;;;;;;;10.30;99.90;;;;;;5121698;27;20001;-69
2022/01/31 12:39:25;;;;;;;;;;;10.40;99.90;;;;;;5093679;27;19911;-72
2022/01/31 12:42:00;;;;;;;;;;;10.60;99.90;;;;;;5128365;27;19915;-72
2022/01/31 12:44:29;;;;;;;;;;;10.60;99.90;;;;;;5131712;27;19915;-69
2022/01/31 12:47:04;;;;;;;;;;;10.70;99.90;;;;;;5128599;27;19998;-70
2022/01/31 12:49:30;;;;;;;;;;;10.70;99.90;;;;;;5131839;27;19955;-70
2022/01/31 12:52:03;;;;;;;;;;;10.80;99.90;;;;;;5115297;27;19954;-69
2022/01/31 12:54:30;;;;;;;;;;;10.90;99.90;;;;;;5125365;27;19937;-69
2022/01/31 12:57:01;;;;;;;;;;;10.90;99.90;;;;;;5124909;27;19915;-70
2022/01/31 12:59:26;;;;;;;;;;;10.90;99.90;;;;;;5126085;27;20349;-70
2022/01/31 13:01:52;;;;;;;;;;;10.90;99.90;;;;;;5129418;27;19958;-69
2022/01/31 13:04:22;;;;;;;;;;;11.00;99.90;;;;;;5127055;27;20306;-69
2022/01/31 13:06:49;;;;;;;;;;;10.90;99.90;;;;;;5117890;27;19935;-68
2022/01/31 13:09:20;;;;;;;;;;;10.90;99.90;;;;;;5130184;27;19911;-70
2022/01/31 13:11:56;;;;;;;;;;;11.00;99.90;;;;;;5127080;27;19916;-70
2022/01/31 13:14:24;;;;;;;;;;;11.00;99.90;;;;;;5129620;27;20603;-69
2022/01/31 13:16:59;;;;;;;;;;;11.00;99.90;;;;;;5127741;27;20476;-70
2022/01/31 13:19:25;;;;;;;;;;;10.90;99.90;;;;;;5130834;27;19918;-69
2022/01/31 13:21:52;;;;;;;;;;;10.90;99.90;;;;;;5126527;27;20289;-69
2022/01/31 13:24:18;;;;;;;;;;;10.80;99.90;;;;;;5124546;27;19915;-69
2022/01/31 13:26:48;;;;;;;;;;;10.90;99.90;;;;;;5129235;27;19911;-69
2022/01/31 13:29:30;;;;;;;;;;;11.00;99.90;;;;;;5128630;27;19930;-69
2022/01/31 13:31:56;;;;;;;;;;;10.90;99.90;;;;;;5127112;27;19922;-71
2022/01/31 13:34:37;;;;;;;;;;;10.90;99.90;;;;;;5129141;27;20361;-71
2022/01/31 13:37:03;;;;;;;;;;;10.90;99.90;;;;;;5125279;28;19940;-70
2022/01/31 13:39:29;;;;;;;;;;;11.00;99.90;;;;;;5124554;27;19916;-70
2022/01/31 13:41:54;;;;;;;;;;;11.10;99.90;;;;;;5124516;27;19919;-69
2022/01/31 13:44:22;;;;;;;;;;;11.10;99.90;;;;;;5120091;28;19923;-71
2022/01/31 13:46:51;;;;;;;;;;;11.00;99.90;;;;;;5124384;28;19912;-70
2022/01/31 13:49:23;;;;;;;;;;;11.00;99.90;;;;;;5126022;28;19966;-69
2022/01/31 13:51:50;;;;;;;;;;;10.80;99.90;;;;;;5130998;28;19970;-70
2022/01/31 13:54:15;;;;;;;;;;;10.80;99.90;;;;;;5127587;28;19915;-69
2022/01/31 13:56:45;;;;;;;;;;;10.80;99.90;;;;;;5125845;28;19912;-70
2022/01/31 13:59:11;;;;;;;;;;;10.70;99.90;;;;;;5121834;28;19907;-70
2022/01/31 14:01:36;;;;;;;;;;;10.90;99.90;;;;;;5129525;28;19925;-69
2022/01/31 14:04:02;;;;;;;;;;;11.10;99.90;;;;;;5129208;28;20333;-69
2022/01/31 14:06:34;;;;;;;;;;;11.20;99.90;;;;;;5121042;28;20333;-70
2022/01/31 14:09:01;;;;;;;;;;;11.40;99.90;;;;;;5120390;27;19912;-71
2022/01/31 14:11:28;;;;;;;;;;;11.50;99.90;;;;;;5133278;27;19912;-69
2022/01/31 14:13:54;;;;;;;;;;;11.40;99.90;;;;;;5130554;27;19961;-71
2022/01/31 14:16:33;;;;;;;;;;;11.40;99.90;;;;;;5122577;28;20001;-70
2022/01/31 14:19:16;;;;;;;;;;;11.10;99.90;;;;;;5128538;28;19947;-69
2022/01/31 14:21:43;;;;;;;;;;;11.00;99.90;;;;;;5122087;27;20345;-70
2022/01/31 14:24:09;;;;;;;;;;;11.00;99.90;;;;;;5120174;28;19956;-69
2022/01/31 14:26:37;;;;;;;;;;;10.90;99.90;;;;;;5118964;28;19933;-70
2022/01/31 14:29:04;;;;;;;;;;;10.70;99.90;;;;;;5124297;27;19960;-70
2022/01/31 14:31:34;;;;;;;;;;;10.70;99.90;;;;;;5128933;27;19912;-68
2022/01/31 14:34:03;;;;;;;;;;;10.90;99.90;;;;;;5129650;28;19908;-71
2022/01/31 14:36:34;;;;;;;;;;;10.90;99.90;;;;;;5118576;28;19972;-70
2022/01/31 14:41:54;;;;;;;;;;;11.00;99.90;;;;;;5124896;27;19984;-69
2022/01/31 14:49:43;;;;;;;;;;;11.00;99.90;;;;;;5125268;27;20512;-69
2022/01/31 14:52:09;;;;;;;;;;;11.00;99.90;;;;;;5131034;27;19935;-71
2022/01/31 14:54:38;;;;;;;;;;;11.00;99.90;;;;;;5133084;27;19908;-69
2022/01/31 14:57:04;;;;;;;;;;;11.20;99.90;;;;;;5122076;27;19935;-70
2022/01/31 14:59:29;;;;;;;;;;;11.10;99.90;;;;;;5133837;27;19947;-69
2022/01/31 15:01:55;;;;;;;;;;;11.00;99.90;;;;;;5126907;27;19987;-70
2022/01/31 15:04:22;;;;;;;;;;;11.10;99.90;;;;;;5131802;27;19915;-69